createdAt,value
2023-05-09T00:06:51.929Z,19.9
2023-05-09T00:17:00.639Z,19.9
2023-05-09T00:27:02.399Z,20
2023-05-09T00:37:13.884Z,19.8
2023-05-09T00:47:15.434Z,20
2023-05-09T00:57:24.224Z,20.1
2023-05-09T01:07:33.428Z,20.1
2023-05-09T01:17:44.047Z,20.1
2023-05-09T01:27:52.692Z,20.1
2023-05-09T01:38:01.592Z,20
2023-05-09T01:48:10.239Z,19.8
2023-05-09T01:58:18.916Z,19.5
2023-05-09T02:08:28.847Z,19.2
2023-05-09T02:18:28.954Z,19
2023-05-09T02:28:38.745Z,19
2023-05-09T02:38:47.462Z,18.9
2023-05-09T02:48:56.149Z,18.8
2023-05-09T02:59:04.421Z,18.7
2023-05-09T03:09:13.395Z,18.9
2023-05-09T03:19:22.079Z,19
2023-05-09T03:29:32.014Z,19.1
2023-05-09T03:39:40.820Z,19.1
2023-05-09T03:49:49.619Z,18.4
2023-05-09T03:59:58.353Z,18.3
2023-05-09T04:09:58.366Z,18.5
2023-05-09T04:19:58.412Z,18.8
2023-05-09T04:30:07.415Z,18.7
2023-05-09T04:40:16.382Z,18.5
2023-05-09T04:50:24.679Z,18.6
2023-05-09T05:00:33.401Z,18.5
2023-05-09T05:10:42.120Z,18.8
2023-05-09T05:20:51.946Z,19.1
2023-05-09T05:31:01.441Z,19.1
2023-05-09T05:41:10.122Z,19
2023-05-09T05:51:18.753Z,18.7
2023-05-09T06:01:28.503Z,18.7
2023-05-09T06:11:37.116Z,19
2023-05-09T06:21:45.831Z,19.3
2023-05-09T06:31:54.665Z,19.5
2023-05-09T06:42:03.383Z,19.4
2023-05-09T06:52:12.167Z,20.1
2023-05-09T07:02:21.028Z,21.7
2023-05-09T07:12:29.636Z,22.9
2023-05-09T07:22:38.337Z,23.8
2023-05-09T07:32:47.013Z,23.4
2023-05-09T07:42:55.588Z,23.4
2023-05-09T07:53:04.275Z,24
2023-05-09T08:03:13.298Z,25.3
2023-05-09T08:13:21.847Z,25.9
2023-05-09T08:23:30.681Z,26
2023-05-09T08:33:40.551Z,26.2
2023-05-09T08:43:47.693Z,25.5
2023-05-09T08:53:56.385Z,25.5
2023-05-09T09:04:05.442Z,25.4
2023-05-09T09:14:14.074Z,25.1
2023-05-09T09:24:22.892Z,24.8
2023-05-09T09:34:31.548Z,24.7
2023-05-09T09:44:40.467Z,24.7
2023-05-09T09:54:49.273Z,25.4
2023-05-09T10:04:57.949Z,25.3
2023-05-09T10:15:06.614Z,25.3
2023-05-09T10:25:15.500Z,25.5
2023-05-09T10:35:24.021Z,25.4
2023-05-09T10:45:32.780Z,25
2023-05-09T10:55:42.154Z,24.8
2023-05-09T11:05:51.550Z,25.1
2023-05-09T11:16:00.804Z,24.9
2023-05-09T11:26:10.076Z,25.5
2023-05-09T11:36:19.543Z,24.5
2023-05-09T11:46:29.492Z,25.2
2023-05-09T11:56:39.107Z,25.2
2023-05-09T12:06:48.520Z,25.5
2023-05-09T12:16:50.842Z,25.6
2023-05-09T12:27:00.351Z,25.8
2023-05-09T12:37:10.057Z,25.9
2023-05-09T12:47:19.480Z,25.3
2023-05-09T12:57:30.846Z,25
2023-05-09T13:07:37.782Z,24.6
2023-05-09T13:17:47.227Z,24.4
2023-05-09T13:27:47.455Z,24.4
2023-05-09T13:37:48.023Z,24.2
2023-05-09T13:47:48.801Z,24.4
2023-05-09T13:57:58.208Z,24.2
2023-05-09T14:08:07.693Z,24.1
2023-05-09T14:18:19.294Z,24.5
2023-05-09T14:28:25.682Z,24.8
2023-05-09T14:38:34.902Z,24.7
2023-05-09T14:48:36.309Z,24.5
2023-05-09T14:58:35.651Z,24.2
2023-05-09T15:08:45.159Z,23.9
2023-05-09T15:18:45.504Z,24
2023-05-09T15:28:45.753Z,24.3
2023-05-09T15:38:55.031Z,24.1
2023-05-09T15:49:04.371Z,24.1
2023-05-09T15:59:13.723Z,24.8
2023-05-09T16:09:22.975Z,24.5
2023-05-09T16:19:35.072Z,24.5
2023-05-09T16:29:34.554Z,24.6
2023-05-09T16:39:43.941Z,24.6
2023-05-09T16:49:53.417Z,24.2
2023-05-09T17:00:02.444Z,24
2023-05-09T17:10:11.191Z,23.8
2023-05-09T17:20:19.795Z,23.8
2023-05-09T17:30:28.387Z,23.5
2023-05-09T17:40:37.014Z,23.3
2023-05-09T17:50:45.812Z,23.2
2023-05-09T18:00:54.374Z,23.1
2023-05-09T18:11:03.114Z,22.6
2023-05-09T18:21:11.832Z,22.7
2023-05-09T18:31:20.601Z,22.5
2023-05-09T18:41:29.313Z,22.5
2023-05-09T18:51:38.264Z,22.1
2023-05-09T19:01:46.933Z,21.1
2023-05-09T19:11:57.216Z,21.4
2023-05-09T19:32:08.451Z,21.3
2023-05-09T19:42:14.411Z,20.9
2023-05-09T19:52:18.779Z,20.8
2023-05-09T20:02:19.427Z,21
2023-05-09T20:12:30.131Z,20.9
2023-05-09T20:22:36.087Z,20.7
2023-05-09T20:32:52.186Z,21.1
2023-05-09T20:42:53.000Z,21
2023-05-09T20:53:02.508Z,21.2
2023-05-09T21:03:10.694Z,21.1
2023-05-09T21:13:18.746Z,21.2
2023-05-09T21:23:26.653Z,21.3
2023-05-09T21:33:34.567Z,21.3
2023-05-09T21:43:42.568Z,21.4
2023-05-09T21:53:51.688Z,21.4
2023-05-09T22:03:59.867Z,21.3
2023-05-09T22:14:07.585Z,21
2023-05-09T22:24:15.558Z,21.1
2023-05-09T22:34:23.450Z,21.1
2023-05-09T22:44:31.556Z,20.9
2023-05-09T22:54:39.601Z,21.1
2023-05-09T23:04:48.301Z,21
2023-05-09T23:14:57.107Z,21
2023-05-09T23:25:05.817Z,21
2023-05-09T23:35:14.414Z,21
2023-05-09T23:45:23.131Z,20.9
2023-05-09T23:55:31.915Z,20.7
